sensor_id;sensor_type;location;lat;lon;timestamp;pressure;altitude;pressure_sealevel;temperature;humidity
10716;BME280;5409;42.620;23.316;2023-11-21T00:01:57;92003.75;;;8.49;97.42
10716;BME280;5409;42.620;23.316;2023-11-21T00:04:24;92007.22;;;8.49;97.05
10716;BME280;5409;42.620;23.316;2023-11-21T00:06:55;92003.75;;;8.49;97.40
10716;BME280;5409;42.620;23.316;2023-11-21T00:09:23;91998.06;;;8.56;97.23
10716;BME280;5409;42.620;23.316;2023-11-21T00:11:49;91997.44;;;8.52;96.87
10716;BME280;5409;42.620;23.316;2023-11-21T00:14:16;91998.84;;;8.56;96.84
10716;BME280;5409;42.620;23.316;2023-11-21T00:16:43;92003.75;;;8.61;96.29
10716;BME280;5409;42.620;23.316;2023-11-21T00:19:09;91998.41;;;8.58;96.59
10716;BME280;5409;42.620;23.316;2023-11-21T00:21:36;92012.75;;;8.58;96.88
10716;BME280;5409;42.620;23.316;2023-11-21T00:24:05;92007.75;;;8.57;96.80
10716;BME280;5409;42.620;23.316;2023-11-21T00:26:32;91999.59;;;8.57;96.27
10716;BME280;5409;42.620;23.316;2023-11-21T00:29:02;91998.00;;;8.59;96.37
10716;BME280;5409;42.620;23.316;2023-11-21T00:31:28;91995.69;;;8.58;96.60
10716;BME280;5409;42.620;23.316;2023-11-21T00:33:56;91990.81;;;8.53;96.38
10716;BME280;5409;42.620;23.316;2023-11-21T00:36:22;91990.38;;;8.54;95.68
10716;BME280;5409;42.620;23.316;2023-11-21T00:38:49;91990.72;;;8.56;95.63
10716;BME280;5409;42.620;23.316;2023-11-21T00:41:17;91990.81;;;8.53;95.59
10716;BME280;5409;42.620;23.316;2023-11-21T00:43:44;91996.69;;;8.51;95.74
10716;BME280;5409;42.620;23.316;2023-11-21T00:46:11;91974.81;;;8.42;96.03
10716;BME280;5409;42.620;23.316;2023-11-21T00:48:38;92001.38;;;8.51;96.22
10716;BME280;5409;42.620;23.316;2023-11-21T00:51:05;91997.88;;;8.50;96.26
10716;BME280;5409;42.620;23.316;2023-11-21T00:53:32;91996.34;;;8.49;95.38
10716;BME280;5409;42.620;23.316;2023-11-21T00:55:59;91997.53;;;8.48;95.68
10716;BME280;5409;42.620;23.316;2023-11-21T00:58:27;91997.22;;;8.46;95.35
10716;BME280;5409;42.620;23.316;2023-11-21T01:00:53;91982.97;;;8.42;94.98
10716;BME280;5409;42.620;23.316;2023-11-21T01:03:21;91982.09;;;8.45;94.89
10716;BME280;5409;42.620;23.316;2023-11-21T01:05:48;91984.06;;;8.45;94.61
10716;BME280;5409;42.620;23.316;2023-11-21T01:08:15;91975.47;;;8.46;95.10
10716;BME280;5409;42.620;23.316;2023-11-21T01:10:42;91970.50;;;8.45;94.77
10716;BME280;5409;42.620;23.316;2023-11-21T01:13:08;91968.19;;;8.43;94.41
10716;BME280;5409;42.620;23.316;2023-11-21T01:15:37;91962.75;;;8.43;94.26
10716;BME280;5409;42.620;23.316;2023-11-21T01:18:04;91977.97;;;8.41;94.04
10716;BME280;5409;42.620;23.316;2023-11-21T01:20:31;91971.69;;;8.31;95.95
10716;BME280;5409;42.620;23.316;2023-11-21T01:22:57;91975.47;;;8.34;96.01
10716;BME280;5409;42.620;23.316;2023-11-21T01:25:25;91985.03;;;8.38;97.12
10716;BME280;5409;42.620;23.316;2023-11-21T01:27:51;91982.75;;;8.37;97.20
10716;BME280;5409;42.620;23.316;2023-11-21T01:30:18;91977.53;;;8.30;97.61
10716;BME280;5409;42.620;23.316;2023-11-21T01:32:46;91980.34;;;8.26;98.62
10716;BME280;5409;42.620;23.316;2023-11-21T01:35:13;91970.25;;;8.27;97.86
10716;BME280;5409;42.620;23.316;2023-11-21T01:37:40;91968.84;;;8.22;97.22
10716;BME280;5409;42.620;23.316;2023-11-21T01:40:07;91967.31;;;8.21;97.64
10716;BME280;5409;42.620;23.316;2023-11-21T01:42:38;91957.31;;;8.18;98.01
10716;BME280;5409;42.620;23.316;2023-11-21T01:45:06;91968.63;;;8.17;98.45
10716;BME280;5409;42.620;23.316;2023-11-21T01:47:33;91974.88;;;8.14;98.08
10716;BME280;5409;42.620;23.316;2023-11-21T01:50:02;91980.84;;;8.09;98.23
10716;BME280;5409;42.620;23.316;2023-11-21T01:52:30;91970.06;;;8.05;99.22
10716;BME280;5409;42.620;23.316;2023-11-21T01:54:58;91935.63;;;7.90;98.54
10716;BME280;5409;42.620;23.316;2023-11-21T01:57:25;91952.59;;;8.06;98.51
10716;BME280;5409;42.620;23.316;2023-11-21T01:59:54;91964.31;;;8.03;98.18
10716;BME280;5409;42.620;23.316;2023-11-21T02:02:21;91967.81;;;8.04;99.30
10716;BME280;5409;42.620;23.316;2023-11-21T02:04:47;91958.13;;;8.03;99.17
10716;BME280;5409;42.620;23.316;2023-11-21T02:07:15;91954.44;;;7.97;98.84
10716;BME280;5409;42.620;23.316;2023-11-21T02:09:44;91962.47;;;8.00;98.57
10716;BME280;5409;42.620;23.316;2023-11-21T02:12:11;91965.94;;;8.01;97.92
10716;BME280;5409;42.620;23.316;2023-11-21T02:14:38;91949.09;;;7.81;98.13
10716;BME280;5409;42.620;23.316;2023-11-21T02:17:05;91961.38;;;7.98;97.79
10716;BME280;5409;42.620;23.316;2023-11-21T02:19:31;91959.78;;;8.00;97.37
10716;BME280;5409;42.620;23.316;2023-11-21T02:21:59;91948.19;;;7.84;97.21
10716;BME280;5409;42.620;23.316;2023-11-21T02:24:31;91947.34;;;7.87;97.23
10716;BME280;5409;42.620;23.316;2023-11-21T02:26:58;91963.75;;;7.96;96.78
10716;BME280;5409;42.620;23.316;2023-11-21T02:29:25;91963.00;;;7.95;97.10
10716;BME280;5409;42.620;23.316;2023-11-21T02:31:53;91956.81;;;7.95;98.14
10716;BME280;5409;42.620;23.316;2023-11-21T02:34:21;91948.00;;;7.91;98.20
10716;BME280;5409;42.620;23.316;2023-11-21T02:36:49;91957.00;;;7.88;98.69
10716;BME280;5409;42.620;23.316;2023-11-21T02:39:16;91956.59;;;7.89;98.96
10716;BME280;5409;42.620;23.316;2023-11-21T02:41:44;91958.97;;;7.88;98.83
10716;BME280;5409;42.620;23.316;2023-11-21T02:44:11;91940.81;;;7.72;98.65
10716;BME280;5409;42.620;23.316;2023-11-21T02:46:38;91951.69;;;7.85;98.32
10716;BME280;5409;42.620;23.316;2023-11-21T02:49:06;91955.47;;;7.87;98.71
10716;BME280;5409;42.620;23.316;2023-11-21T02:51:33;91950.91;;;7.84;97.98
10716;BME280;5409;42.620;23.316;2023-11-21T02:54:00;91957.78;;;7.88;97.68
10716;BME280;5409;42.620;23.316;2023-11-21T02:56:29;91963.63;;;7.87;98.01
10716;BME280;5409;42.620;23.316;2023-11-21T02:58:57;91952.44;;;7.85;98.79
10716;BME280;5409;42.620;23.316;2023-11-21T03:01:25;91959.50;;;7.83;99.15
10716;BME280;5409;42.620;23.316;2023-11-21T03:03:53;91938.66;;;7.80;98.69
10716;BME280;5409;42.620;23.316;2023-11-21T03:06:20;91947.91;;;7.82;98.78
10716;BME280;5409;42.620;23.316;2023-11-21T03:08:47;91940.94;;;7.81;99.17
10716;BME280;5409;42.620;23.316;2023-11-21T03:11:14;91943.22;;;7.83;98.96
10716;BME280;5409;42.620;23.316;2023-11-21T03:13:41;91945.47;;;7.84;99.26
10716;BME280;5409;42.620;23.316;2023-11-21T03:16:09;91943.97;;;7.83;99.19
10716;BME280;5409;42.620;23.316;2023-11-21T03:18:37;91942.78;;;7.84;98.84
10716;BME280;5409;42.620;23.316;2023-11-21T03:21:03;91947.91;;;7.82;98.56
10716;BME280;5409;42.620;23.316;2023-11-21T03:23:30;91948.97;;;7.85;98.84
10716;BME280;5409;42.620;23.316;2023-11-21T03:25:57;91941.66;;;7.69;98.45
10716;BME280;5409;42.620;23.316;2023-11-21T03:28:25;91971.53;;;7.82;98.90
10716;BME280;5409;42.620;23.316;2023-11-21T03:30:52;91964.59;;;7.81;99.77
10716;BME280;5409;42.620;23.316;2023-11-21T03:33:20;91962.22;;;7.83;99.70
10716;BME280;5409;42.620;23.316;2023-11-21T03:35:47;91962.22;;;7.83;99.12
10716;BME280;5409;42.620;23.316;2023-11-21T03:38:14;91960.69;;;7.82;99.24
10716;BME280;5409;42.620;23.316;2023-11-21T03:40:41;91962.22;;;7.83;99.26
10716;BME280;5409;42.620;23.316;2023-11-21T03:43:08;91958.75;;;7.82;98.62
10716;BME280;5409;42.620;23.316;2023-11-21T03:45:35;91961.75;;;7.84;99.00
10716;BME280;5409;42.620;23.316;2023-11-21T03:48:02;91945.94;;;7.83;99.54
10716;BME280;5409;42.620;23.316;2023-11-21T03:50:30;91945.47;;;7.84;99.37
10716;BME280;5409;42.620;23.316;2023-11-21T03:52:56;91936.72;;;7.80;99.22
10716;BME280;5409;42.620;23.316;2023-11-21T03:55:23;91935.19;;;7.79;99.68
10716;BME280;5409;42.620;23.316;2023-11-21T03:57:50;91941.81;;;7.78;100.00
10716;BME280;5409;42.620;23.316;2023-11-21T04:00:17;91935.19;;;7.79;100.00
10716;BME280;5409;42.620;23.316;2023-11-21T04:02:46;91942.13;;;7.80;100.00
10716;BME280;5409;42.620;23.316;2023-11-21T04:05:13;91930.63;;;7.76;100.00
10716;BME280;5409;42.620;23.316;2023-11-21T04:07:41;91925.94;;;7.77;100.00
10716;BME280;5409;42.620;23.316;2023-11-21T04:10:08;91924.41;;;7.76;100.00
10716;BME280;5409;42.620;23.316;2023-11-21T04:12:37;91926.06;;;7.73;100.00
10716;BME280;5409;42.620;23.316;2023-11-21T04:15:05;91929.09;;;7.75;100.00
10716;BME280;5409;42.620;23.316;2023-11-21T04:17:34;91930.69;;;7.73;100.00
10716;BME280;5409;42.620;23.316;2023-11-21T04:20:02;91925.72;;;7.71;100.00
10716;BME280;5409;42.620;23.316;2023-11-21T04:22:28;91921.91;;;7.69;100.00
10716;BME280;5409;42.620;23.316;2023-11-21T04:24:56;91922.66;;;7.69;100.00
10716;BME280;5409;42.620;23.316;2023-11-21T04:27:23;91924.19;;;7.70;100.00
10716;BME280;5409;42.620;23.316;2023-11-21T04:29:50;91922.00;;;7.65;100.00
10716;BME280;5409;42.620;23.316;2023-11-21T04:32:16;91908.63;;;7.58;100.00
10716;BME280;5409;42.620;23.316;2023-11-21T04:34:43;91935.72;;;7.74;100.00
10716;BME280;5409;42.620;23.316;2023-11-21T04:37:10;91929.84;;;7.76;100.00
10716;BME280;5409;42.620;23.316;2023-11-21T04:39:37;91923.75;;;7.72;100.00
10716;BME280;5409;42.620;23.316;2023-11-21T04:42:05;91905.72;;;7.65;100.00
10716;BME280;5409;42.620;23.316;2023-11-21T04:44:32;91927.56;;;7.74;100.00
10716;BME280;5409;42.620;23.316;2023-11-21T04:46:59;91937.97;;;7.76;100.00
10716;BME280;5409;42.620;23.316;2023-11-21T04:49:25;91927.91;;;7.76;100.00
10716;BME280;5409;42.620;23.316;2023-11-21T04:51:52;91928.56;;;7.80;100.00
10716;BME280;5409;42.620;23.316;2023-11-21T04:54:19;91933.22;;;7.80;100.00
10716;BME280;5409;42.620;23.316;2023-11-21T04:56:45;91936.72;;;7.80;100.00
10716;BME280;5409;42.620;23.316;2023-11-21T04:59:13;91935.53;;;7.81;100.00
10716;BME280;5409;42.620;23.316;2023-11-21T05:01:40;91931.63;;;7.82;100.00
10716;BME280;5409;42.620;23.316;2023-11-21T05:04:07;91931.63;;;7.82;100.00
10716;BME280;5409;42.620;23.316;2023-11-21T05:06:34;91919.84;;;7.73;100.00
10716;BME280;5409;42.620;23.316;2023-11-21T05:09:00;91938.53;;;7.83;99.95
10716;BME280;5409;42.620;23.316;2023-11-21T05:11:28;91941.06;;;7.90;100.00
10716;BME280;5409;42.620;23.316;2023-11-21T05:13:55;91924.78;;;7.90;99.96
10716;BME280;5409;42.620;23.316;2023-11-21T05:16:26;91923.47;;;7.82;100.00
10716;BME280;5409;42.620;23.316;2023-11-21T05:18:53;91915.19;;;7.73;100.00
10716;BME280;5409;42.620;23.316;2023-11-21T05:21:25;91930.19;;;7.90;100.00
10716;BME280;5409;42.620;23.316;2023-11-21T05:23:52;91923.50;;;7.94;100.00
10716;BME280;5409;42.620;23.316;2023-11-21T05:26:19;91933.16;;;7.95;100.00
10716;BME280;5409;42.620;23.316;2023-11-21T05:28:46;91931.72;;;7.91;100.00
10716;BME280;5409;42.620;23.316;2023-11-21T05:31:13;91923.91;;;7.93;100.00
10716;BME280;5409;42.620;23.316;2023-11-21T05:33:41;91937.94;;;7.91;100.00
10716;BME280;5409;42.620;23.316;2023-11-21T05:36:09;91940.53;;;7.95;100.00
10716;BME280;5409;42.620;23.316;2023-11-21T05:38:36;91949.09;;;7.93;100.00
10716;BME280;5409;42.620;23.316;2023-11-21T05:41:03;91936.94;;;7.98;100.00
10716;BME280;5409;42.620;23.316;2023-11-21T05:43:30;91944.75;;;7.96;100.00
10716;BME280;5409;42.620;23.316;2023-11-21T05:45:57;91941.97;;;7.99;100.00
10716;BME280;5409;42.620;23.316;2023-11-21T05:48:24;91948.34;;;8.05;100.00
10716;BME280;5409;42.620;23.316;2023-11-21T05:50:52;91941.72;;;8.06;100.00
10716;BME280;5409;42.620;23.316;2023-11-21T05:53:19;91945.97;;;8.07;99.44
10716;BME280;5409;42.620;23.316;2023-11-21T05:55:45;91932.72;;;8.09;98.83
10716;BME280;5409;42.620;23.316;2023-11-21T05:58:13;91935.03;;;8.11;98.86
10716;BME280;5409;42.620;23.316;2023-11-21T06:00:40;91940.69;;;8.16;98.52
10716;BME280;5409;42.620;23.316;2023-11-21T06:03:07;91928.97;;;8.19;98.64
10716;BME280;5409;42.620;23.316;2023-11-21T06:05:34;91938.66;;;8.20;99.15
10716;BME280;5409;42.620;23.316;2023-11-21T06:08:02;91937.00;;;8.23;99.66
10716;BME280;5409;42.620;23.316;2023-11-21T06:10:29;91936.81;;;8.30;100.00
10716;BME280;5409;42.620;23.316;2023-11-21T06:12:55;91941.47;;;8.29;100.00
10716;BME280;5409;42.620;23.316;2023-11-21T06:15:23;91942.03;;;8.24;99.49
10716;BME280;5409;42.620;23.316;2023-11-21T06:17:50;91943.88;;;8.40;99.72
10716;BME280;5409;42.620;23.316;2023-11-21T06:20:18;91946.47;;;8.43;99.77
10716;BME280;5409;42.620;23.316;2023-11-21T06:22:47;91944.72;;;8.49;99.66
10716;BME280;5409;42.620;23.316;2023-11-21T06:25:16;91943.75;;;8.56;99.76
10716;BME280;5409;42.620;23.316;2023-11-21T06:27:46;91947.03;;;8.63;100.00
10716;BME280;5409;42.620;23.316;2023-11-21T06:30:14;91960.16;;;8.65;100.00
10716;BME280;5409;42.620;23.316;2023-11-21T06:32:41;91947.56;;;8.71;100.00
10716;BME280;5409;42.620;23.316;2023-11-21T06:35:11;91960.94;;;8.78;100.00
10716;BME280;5409;42.620;23.316;2023-11-21T06:37:38;91959.28;;;8.80;99.84
10716;BME280;5409;42.620;23.316;2023-11-21T06:40:06;91965.03;;;8.82;100.00
10716;BME280;5409;42.620;23.316;2023-11-21T06:42:36;91975.03;;;8.85;100.00
10716;BME280;5409;42.620;23.316;2023-11-21T06:45:04;91978.88;;;8.88;100.00
10716;BME280;5409;42.620;23.316;2023-11-21T06:47:31;91966.66;;;8.92;100.00
10716;BME280;5409;42.620;23.316;2023-11-21T06:49:58;91968.94;;;8.94;100.00
10716;BME280;5409;42.620;23.316;2023-11-21T06:52:25;91970.69;;;9.00;100.00
10716;BME280;5409;42.620;23.316;2023-11-21T06:54:52;91965.69;;;8.99;100.00
10716;BME280;5409;42.620;23.316;2023-11-21T06:57:20;91970.56;;;9.03;100.00
10716;BME280;5409;42.620;23.316;2023-11-21T06:59:48;91973.06;;;9.10;100.00
10716;BME280;5409;42.620;23.316;2023-11-21T07:02:15;91951.66;;;9.00;99.75
10716;BME280;5409;42.620;23.316;2023-11-21T07:04:43;91979.03;;;9.18;98.84
10716;BME280;5409;42.620;23.316;2023-11-21T07:07:10;91983.81;;;9.14;98.43
10716;BME280;5409;42.620;23.316;2023-11-21T07:09:37;91977.81;;;9.19;98.54
10716;BME280;5409;42.620;23.316;2023-11-21T07:12:04;91969.44;;;9.26;97.94
10716;BME280;5409;42.620;23.316;2023-11-21T07:14:33;91971.09;;;9.23;97.97
10716;BME280;5409;42.620;23.316;2023-11-21T07:17:01;91966.81;;;9.35;97.94
10716;BME280;5409;42.620;23.316;2023-11-21T07:19:27;91963.63;;;9.36;98.58
10716;BME280;5409;42.620;23.316;2023-11-21T07:21:54;91957.66;;;9.41;98.03
10716;BME280;5409;42.620;23.316;2023-11-21T07:24:21;91967.31;;;9.42;98.27
10716;BME280;5409;42.620;23.316;2023-11-21T07:26:48;91970.56;;;9.50;98.38
10716;BME280;5409;42.620;23.316;2023-11-21T07:29:15;91964.00;;;9.60;98.53
10716;BME280;5409;42.620;23.316;2023-11-21T07:31:41;91962.69;;;9.64;98.20
10716;BME280;5409;42.620;23.316;2023-11-21T07:34:09;91968.31;;;9.70;98.59
10716;BME280;5409;42.620;23.316;2023-11-21T07:36:37;91967.13;;;9.71;98.36
10716;BME280;5409;42.620;23.316;2023-11-21T07:39:04;91970.16;;;9.73;97.97
10716;BME280;5409;42.620;23.316;2023-11-21T07:41:32;91975.78;;;9.78;97.81
10716;BME280;5409;42.620;23.316;2023-11-21T07:43:58;91972.00;;;9.76;97.55
10716;BME280;5409;42.620;23.316;2023-11-21T07:46:26;91974.91;;;9.81;97.73
10716;BME280;5409;42.620;23.316;2023-11-21T07:48:52;91973.72;;;9.82;97.69
10716;BME280;5409;42.620;23.316;2023-11-21T07:51:22;91972.19;;;9.81;98.82
10716;BME280;5409;42.620;23.316;2023-11-21T07:53:48;91969.47;;;9.81;98.51
10716;BME280;5409;42.620;23.316;2023-11-21T07:56:15;91966.63;;;9.85;98.08
10716;BME280;5409;42.620;23.316;2023-11-21T07:58:42;91965.63;;;9.91;98.16
10716;BME280;5409;42.620;23.316;2023-11-21T08:01:09;91952.66;;;9.95;97.96
10716;BME280;5409;42.620;23.316;2023-11-21T08:03:36;91953.63;;;10.01;98.35
10716;BME280;5409;42.620;23.316;2023-11-21T08:06:04;91962.22;;;10.00;98.51
10716;BME280;5409;42.620;23.316;2023-11-21T08:08:32;91947.47;;;10.10;98.26
10716;BME280;5409;42.620;23.316;2023-11-21T08:10:59;91956.13;;;10.17;98.08
10716;BME280;5409;42.620;23.316;2023-11-21T08:13:27;91953.28;;;10.20;98.88
10716;BME280;5409;42.620;23.316;2023-11-21T08:15:55;91956.94;;;10.26;99.14
10716;BME280;5409;42.620;23.316;2023-11-21T08:18:23;91952.34;;;10.36;97.97
10716;BME280;5409;42.620;23.316;2023-11-21T08:20:50;91944.16;;;10.36;97.46
10716;BME280;5409;42.620;23.316;2023-11-21T08:23:17;91956.19;;;10.56;96.87
10716;BME280;5409;42.620;23.316;2023-11-21T08:25:45;91959.44;;;10.64;97.41
10716;BME280;5409;42.620;23.316;2023-11-21T08:28:12;91957.63;;;10.70;96.38
10716;BME280;5409;42.620;23.316;2023-11-21T08:30:41;91955.06;;;10.75;95.89
10716;BME280;5409;42.620;23.316;2023-11-21T08:33:08;91964.63;;;10.80;94.94
10716;BME280;5409;42.620;23.316;2023-11-21T08:35:36;91958.28;;;10.83;94.84
10716;BME280;5409;42.620;23.316;2023-11-21T08:38:03;91948.59;;;10.82;94.59
10716;BME280;5409;42.620;23.316;2023-11-21T08:40:30;91949.41;;;10.91;94.16
10716;BME280;5409;42.620;23.316;2023-11-21T08:42:58;91947.09;;;10.90;94.31
10716;BME280;5409;42.620;23.316;2023-11-21T08:45:25;91944.41;;;10.99;94.16
10716;BME280;5409;42.620;23.316;2023-11-21T08:47:52;91956.25;;;11.05;93.26
10716;BME280;5409;42.620;23.316;2023-11-21T08:50:19;91947.47;;;11.10;92.75
10716;BME280;5409;42.620;23.316;2023-11-21T08:52:46;91952.00;;;11.13;92.69
10716;BME280;5409;42.620;23.316;2023-11-21T08:55:13;91947.75;;;11.12;92.99
10716;BME280;5409;42.620;23.316;2023-11-21T08:57:41;91944.13;;;11.15;93.38
10716;BME280;5409;42.620;23.316;2023-11-21T09:00:11;91936.56;;;11.19;93.28
10716;BME280;5409;42.620;23.316;2023-11-21T09:02:39;91923.41;;;11.26;92.98
10716;BME280;5409;42.620;23.316;2023-11-21T09:05:07;91919.16;;;11.25;93.45
10716;BME280;5409;42.620;23.316;2023-11-21T09:07:34;91914.91;;;11.33;93.30
10716;BME280;5409;42.620;23.316;2023-11-21T09:10:01;91910.97;;;11.34;93.33
10716;BME280;5409;42.620;23.316;2023-11-21T09:12:28;91900.06;;;11.34;93.67
10716;BME280;5409;42.620;23.316;2023-11-21T09:14:55;91891.72;;;11.29;93.65
10716;BME280;5409;42.620;23.316;2023-11-21T09:17:23;91892.66;;;11.34;93.12
10716;BME280;5409;42.620;23.316;2023-11-21T09:19:50;91895.97;;;11.30;93.09
10716;BME280;5409;42.620;23.316;2023-11-21T09:22:17;91894.59;;;11.34;92.94
10716;BME280;5409;42.620;23.316;2023-11-21T09:24:44;91873.53;;;11.34;93.00
10716;BME280;5409;42.620;23.316;2023-11-21T09:27:10;91871.28;;;11.42;92.37
10716;BME280;5409;42.620;23.316;2023-11-21T09:29:37;91870.97;;;11.40;92.15
10716;BME280;5409;42.620;23.316;2023-11-21T09:32:05;91861.13;;;11.42;91.32
10716;BME280;5409;42.620;23.316;2023-11-21T09:34:34;91847.91;;;11.50;90.61
10716;BME280;5409;42.620;23.316;2023-11-21T09:37:03;91837.94;;;11.56;90.72
10716;BME280;5409;42.620;23.316;2023-11-21T09:39:31;91858.41;;;11.60;89.77
10716;BME280;5409;42.620;23.316;2023-11-21T09:42:04;91846.28;;;11.61;89.10
10716;BME280;5409;42.620;23.316;2023-11-21T09:44:35;91825.50;;;11.64;89.09
10716;BME280;5409;42.620;23.316;2023-11-21T09:47:02;91817.16;;;11.67;89.17
10716;BME280;5409;42.620;23.316;2023-11-21T09:49:31;91814.41;;;11.76;89.44
10716;BME280;5409;42.620;23.316;2023-11-21T09:52:02;91826.38;;;11.88;89.65
10716;BME280;5409;42.620;23.316;2023-11-21T09:54:30;91820.41;;;11.98;89.39
10716;BME280;5409;42.620;23.316;2023-11-21T09:56:59;91820.84;;;12.06;88.32
10716;BME280;5409;42.620;23.316;2023-11-21T09:59:28;91796.56;;;12.08;86.97
10716;BME280;5409;42.620;23.316;2023-11-21T10:01:57;91793.97;;;12.13;85.80
10716;BME280;5409;42.620;23.316;2023-11-21T10:04:25;91790.75;;;12.24;85.18
10716;BME280;5409;42.620;23.316;2023-11-21T10:06:53;91783.59;;;12.26;85.49
10716;BME280;5409;42.620;23.316;2023-11-21T10:09:21;91791.00;;;12.35;85.12
10716;BME280;5409;42.620;23.316;2023-11-21T10:11:49;91795.66;;;12.43;84.38
10716;BME280;5409;42.620;23.316;2023-11-21T10:14:18;91801.88;;;12.44;84.43
10716;BME280;5409;42.620;23.316;2023-11-21T10:16:47;91795.50;;;12.47;82.98
10716;BME280;5409;42.620;23.316;2023-11-21T10:19:15;91790.78;;;12.47;83.46
10716;BME280;5409;42.620;23.316;2023-11-21T10:21:42;91783.19;;;12.51;84.21
10716;BME280;5409;42.620;23.316;2023-11-21T10:24:09;91781.16;;;12.60;83.72
10716;BME280;5409;42.620;23.316;2023-11-21T10:26:39;91776.28;;;12.64;83.73
10716;BME280;5409;42.620;23.316;2023-11-21T10:29:07;91776.09;;;12.68;83.29
10716;BME280;5409;42.620;23.316;2023-11-21T10:31:33;91770.16;;;12.69;82.37
10716;BME280;5409;42.620;23.316;2023-11-21T10:34:14;91778.47;;;12.75;82.53
10716;BME280;5409;42.620;23.316;2023-11-21T10:36:41;91771.44;;;12.83;81.94
10716;BME280;5409;42.620;23.316;2023-11-21T10:39:08;91776.72;;;12.86;82.29
10716;BME280;5409;42.620;23.316;2023-11-21T10:41:36;91773.25;;;12.86;81.04
10716;BME280;5409;42.620;23.316;2023-11-21T10:44:04;91774.34;;;12.79;80.31
10716;BME280;5409;42.620;23.316;2023-11-21T10:46:32;91771.00;;;12.75;80.02
10716;BME280;5409;42.620;23.316;2023-11-21T10:49:00;91768.50;;;12.63;79.77
10716;BME280;5409;42.620;23.316;2023-11-21T10:51:27;91757.16;;;12.55;80.07
10716;BME280;5409;42.620;23.316;2023-11-21T10:53:54;91764.78;;;12.51;80.21
10716;BME280;5409;42.620;23.316;2023-11-21T10:56:23;91764.38;;;12.44;80.33
10716;BME280;5409;42.620;23.316;2023-11-21T10:58:50;91753.47;;;12.35;81.40
10716;BME280;5409;42.620;23.316;2023-11-21T11:01:19;91746.97;;;12.33;82.29
10716;BME280;5409;42.620;23.316;2023-11-21T11:03:47;91752.31;;;12.27;83.18
10716;BME280;5409;42.620;23.316;2023-11-21T11:06:14;91750.97;;;12.23;83.03
10716;BME280;5409;42.620;23.316;2023-11-21T11:08:41;91746.91;;;12.18;83.38
10716;BME280;5409;42.620;23.316;2023-11-21T11:11:09;91753.88;;;12.19;83.27
10716;BME280;5409;42.620;23.316;2023-11-21T11:13:37;91742.66;;;12.17;83.08
10716;BME280;5409;42.620;23.316;2023-11-21T11:16:05;91732.94;;;12.16;84.90
10716;BME280;5409;42.620;23.316;2023-11-21T11:18:37;91725.19;;;12.15;84.27
10716;BME280;5409;42.620;23.316;2023-11-21T11:21:10;91736.41;;;12.17;83.53
10716;BME280;5409;42.620;23.316;2023-11-21T11:23:56;91729.91;;;12.14;82.41
10716;BME280;5409;42.620;23.316;2023-11-21T11:26:39;91718.22;;;12.14;82.93
10716;BME280;5409;42.620;23.316;2023-11-21T11:29:14;91706.09;;;12.06;82.84
10716;BME280;5409;42.620;23.316;2023-11-21T11:32:02;91712.31;;;12.15;82.80
10716;BME280;5409;42.620;23.316;2023-11-21T11:34:35;91705.38;;;12.05;83.59
10716;BME280;5409;42.620;23.316;2023-11-21T11:37:06;91698.06;;;12.11;84.22
10716;BME280;5409;42.620;23.316;2023-11-21T11:39:36;91695.31;;;12.11;83.81
10716;BME280;5409;42.620;23.316;2023-11-21T11:42:05;91695.31;;;12.11;83.71
10716;BME280;5409;42.620;23.316;2023-11-21T11:44:49;91708.97;;;12.11;83.88
10716;BME280;5409;42.620;23.316;2023-11-21T11:47:20;91712.22;;;12.01;85.35
10716;BME280;5409;42.620;23.316;2023-11-21T11:50:00;91722.25;;;11.95;85.16
10716;BME280;5409;42.620;23.316;2023-11-21T11:52:36;91721.34;;;11.98;85.86
10716;BME280;5409;42.620;23.316;2023-11-21T11:55:05;91718.00;;;11.94;85.64
10716;BME280;5409;42.620;23.316;2023-11-21T11:57:33;91710.25;;;11.92;86.17
10716;BME280;5409;42.620;23.316;2023-11-21T12:00:11;91704.50;;;11.90;86.41
10716;BME280;5409;42.620;23.316;2023-11-21T12:02:42;91702.88;;;11.84;87.64
10716;BME280;5409;42.620;23.316;2023-11-21T12:05:11;91705.44;;;11.87;88.69
10716;BME280;5409;42.620;23.316;2023-11-21T12:07:46;91707.59;;;11.83;88.81
10716;BME280;5409;42.620;23.316;2023-11-21T12:10:14;91704.41;;;11.76;92.16
10716;BME280;5409;42.620;23.316;2023-11-21T12:12:44;91715.19;;;11.79;94.32
10716;BME280;5409;42.620;23.316;2023-11-21T12:15:11;91724.00;;;11.74;95.15
10716;BME280;5409;42.620;23.316;2023-11-21T12:17:39;91720.19;;;11.72;96.76
10716;BME280;5409;42.620;23.316;2023-11-21T12:20:07;91709.28;;;11.72;97.18
10716;BME280;5409;42.620;23.316;2023-11-21T12:22:44;91708.06;;;11.73;98.90
10716;BME280;5409;42.620;23.316;2023-11-21T12:25:13;91694.88;;;11.71;100.00
10716;BME280;5409;42.620;23.316;2023-11-21T12:27:42;91693.19;;;11.74;100.00
10716;BME280;5409;42.620;23.316;2023-11-21T12:30:11;91704.88;;;11.74;99.97
10716;BME280;5409;42.620;23.316;2023-11-21T12:32:41;91697.63;;;11.62;97.67
10716;BME280;5409;42.620;23.316;2023-11-21T12:35:09;91709.63;;;11.65;97.54
10716;BME280;5409;42.620;23.316;2023-11-21T12:37:36;91723.72;;;11.63;100.00
10716;BME280;5409;42.620;23.316;2023-11-21T12:40:06;91714.94;;;11.59;100.00
10716;BME280;5409;42.620;23.316;2023-11-21T12:42:37;91706.75;;;11.59;100.00
10716;BME280;5409;42.620;23.316;2023-11-21T12:45:18;91694.63;;;11.60;100.00
10716;BME280;5409;42.620;23.316;2023-11-21T12:47:46;91699.03;;;11.58;99.23
10716;BME280;5409;42.620;23.316;2023-11-21T12:50:13;91697.03;;;11.58;100.00
10716;BME280;5409;42.620;23.316;2023-11-21T12:52:44;91692.66;;;11.61;100.00
10716;BME280;5409;42.620;23.316;2023-11-21T12:55:18;91683.25;;;11.62;100.00
10716;BME280;5409;42.620;23.316;2023-11-21T12:57:48;91676.28;;;11.61;100.00
10716;BME280;5409;42.620;23.316;2023-11-21T13:00:17;91680.22;;;11.60;100.00
10716;BME280;5409;42.620;23.316;2023-11-21T13:02:53;91667.59;;;11.53;100.00
10716;BME280;5409;42.620;23.316;2023-11-21T13:05:26;91668.72;;;11.56;100.00
10716;BME280;5409;42.620;23.316;2023-11-21T13:07:53;91667.31;;;11.51;100.00
10716;BME280;5409;42.620;23.316;2023-11-21T13:10:25;91654.75;;;11.54;99.35